sensor_id;sensor_type;location;lat;lon;timestamp;pressure;altitude;pressure_sealevel;temperature;humidity
77079;BME280;66004;55.096;38.760;2023-05-21T00:00:51;100813.13;;;11.33;70.29
77079;BME280;66004;55.096;38.760;2023-05-21T00:03:18;100805.81;;;11.32;70.43
77079;BME280;66004;55.096;38.760;2023-05-21T00:05:43;100796.22;;;11.33;70.66
77079;BME280;66004;55.096;38.760;2023-05-21T00:08:11;100790.41;;;11.29;70.62
77079;BME280;66004;55.096;38.760;2023-05-21T00:10:36;100795.41;;;11.32;70.44
77079;BME280;66004;55.096;38.760;2023-05-21T00:13:08;100800.19;;;11.32;70.72
77079;BME280;66004;55.096;38.760;2023-05-21T00:15:35;100801.03;;;11.32;70.45
77079;BME280;66004;55.096;38.760;2023-05-21T00:18:00;100813.13;;;11.33;70.82
77079;BME280;66004;55.096;38.760;2023-05-21T00:20:26;100797.88;;;11.34;70.79
77079;BME280;66004;55.096;38.760;2023-05-21T00:22:53;100802.84;;;11.37;70.53
77079;BME280;66004;55.096;38.760;2023-05-21T00:25:19;100793.09;;;11.34;70.45
77079;BME280;66004;55.096;38.760;2023-05-21T00:27:47;100787.28;;;11.30;70.49
77079;BME280;66004;55.096;38.760;2023-05-21T00:30:13;100793.91;;;11.35;70.69
77079;BME280;66004;55.096;38.760;2023-05-21T00:32:40;100785.59;;;11.29;70.87
77079;BME280;66004;55.096;38.760;2023-05-21T00:35:06;100798.22;;;11.41;70.70
77079;BME280;66004;55.096;38.760;2023-05-21T00:37:32;100804.34;;;11.43;70.83
77079;BME280;66004;55.096;38.760;2023-05-21T00:40:01;100796.56;;;11.40;70.66
77079;BME280;66004;55.096;38.760;2023-05-21T00:42:29;100789.75;;;11.41;70.55
77079;BME280;66004;55.096;38.760;2023-05-21T00:44:55;100800.91;;;11.46;70.35
77079;BME280;66004;55.096;38.760;2023-05-21T00:47:21;100800.56;;;11.47;70.44
77079;BME280;66004;55.096;38.760;2023-05-21T00:49:47;100798.06;;;11.46;70.45
77079;BME280;66004;55.096;38.760;2023-05-21T00:52:15;100800.91;;;11.46;70.68
77079;BME280;66004;55.096;38.760;2023-05-21T00:54:45;100792.44;;;11.46;70.73
77079;BME280;66004;55.096;38.760;2023-05-21T00:57:13;100791.13;;;11.43;70.35
77079;BME280;66004;55.096;38.760;2023-05-21T00:59:38;100796.91;;;11.47;70.53
77079;BME280;66004;55.096;38.760;2023-05-21T01:02:04;100798.56;;;11.48;70.53
77079;BME280;66004;55.096;38.760;2023-05-21T01:04:31;100803.38;;;11.47;70.33
77079;BME280;66004;55.096;38.760;2023-05-21T01:06:57;100790.94;;;11.40;70.72
77079;BME280;66004;55.096;38.760;2023-05-21T01:09:24;100800.25;;;11.49;70.70
77079;BME280;66004;55.096;38.760;2023-05-21T01:11:50;100794.63;;;11.49;70.34
77079;BME280;66004;55.096;38.760;2023-05-21T01:14:17;100801.91;;;11.50;70.71
77079;BME280;66004;55.096;38.760;2023-05-21T01:16:45;100799.06;;;11.50;70.66
77079;BME280;66004;55.096;38.760;2023-05-21T01:19:15;100801.91;;;11.50;70.55
77079;BME280;66004;55.096;38.760;2023-05-21T01:21:45;100801.91;;;11.50;70.51
77079;BME280;66004;55.096;38.760;2023-05-21T01:24:11;100807.53;;;11.50;70.51
77079;BME280;66004;55.096;38.760;2023-05-21T01:26:39;100804.38;;;11.52;70.76
77079;BME280;66004;55.096;38.760;2023-05-21T01:29:07;100789.63;;;11.46;70.47
77079;BME280;66004;55.096;38.760;2023-05-21T01:35:04;100803.75;;;11.55;70.20
77079;BME280;66004;55.096;38.760;2023-05-21T01:37:36;100801.44;;;11.57;70.43
77079;BME280;66004;55.096;38.760;2023-05-21T01:40:12;100803.88;;;11.58;70.44
77079;BME280;66004;55.096;38.760;2023-05-21T01:42:41;100795.44;;;11.49;70.35
77079;BME280;66004;55.096;38.760;2023-05-21T01:45:11;100801.59;;;11.60;70.33
77079;BME280;66004;55.096;38.760;2023-05-21T01:47:38;100795.63;;;11.53;70.21
77079;BME280;66004;55.096;38.760;2023-05-21T01:50:05;100801.59;;;11.60;70.39
77079;BME280;66004;55.096;38.760;2023-05-21T01:52:31;100797.59;;;11.61;70.48
77079;BME280;66004;55.096;38.760;2023-05-21T01:54:57;100804.41;;;11.60;70.66
77079;BME280;66004;55.096;38.760;2023-05-21T01:57:24;100806.38;;;11.60;70.37
77079;BME280;66004;55.096;38.760;2023-05-21T01:59:50;100792.47;;;11.63;70.42
77079;BME280;66004;55.096;38.760;2023-05-21T02:02:17;100799.78;;;11.64;70.24
77079;BME280;66004;55.096;38.760;2023-05-21T02:04:43;100801.41;;;11.65;70.36
77079;BME280;66004;55.096;38.760;2023-05-21T02:07:10;100802.78;;;11.68;70.28
77079;BME280;66004;55.096;38.760;2023-05-21T02:09:38;100800.94;;;11.72;69.82
77079;BME280;66004;55.096;38.760;2023-05-21T02:12:05;100803.44;;;11.74;69.95
77079;BME280;66004;55.096;38.760;2023-05-21T02:14:31;100800.28;;;11.66;69.61
77079;BME280;66004;55.096;38.760;2023-05-21T02:16:58;100799.94;;;11.77;69.59
77079;BME280;66004;55.096;38.760;2023-05-21T02:19:25;100807.91;;;11.75;69.64
77079;BME280;66004;55.096;38.760;2023-05-21T02:21:51;100800.44;;;11.70;69.70
77079;BME280;66004;55.096;38.760;2023-05-21T02:24:16;100803.94;;;11.76;69.43
77079;BME280;66004;55.096;38.760;2023-05-21T02:26:42;100798.47;;;11.79;69.50
77079;BME280;66004;55.096;38.760;2023-05-21T02:29:08;100801.97;;;11.85;68.90
77079;BME280;66004;55.096;38.760;2023-05-21T02:31:33;100805.47;;;11.91;69.01
77079;BME280;66004;55.096;38.760;2023-05-21T02:33:59;100801.16;;;11.93;68.65
77079;BME280;66004;55.096;38.760;2023-05-21T02:36:24;100792.03;;;11.96;68.42
77079;BME280;66004;55.096;38.760;2023-05-21T02:38:53;100798.69;;;12.00;67.91
77079;BME280;66004;55.096;38.760;2023-05-21T02:41:20;100795.84;;;12.00;68.09
77079;BME280;66004;55.096;38.760;2023-05-21T02:43:45;100806.63;;;11.98;67.75
77079;BME280;66004;55.096;38.760;2023-05-21T02:46:11;100806.13;;;12.14;67.71
77079;BME280;66004;55.096;38.760;2023-05-21T02:52:05;100806.91;;;12.58;66.05
77079;BME280;66004;55.096;38.760;2023-05-21T02:54:30;100803.75;;;12.59;65.90
77079;BME280;66004;55.096;38.760;2023-05-21T02:56:56;100807.59;;;12.55;65.70
77079;BME280;66004;55.096;38.760;2023-05-21T02:59:22;100812.75;;;12.53;65.80
77079;BME280;66004;55.096;38.760;2023-05-21T03:01:48;100807.59;;;12.55;65.75
77079;BME280;66004;55.096;38.760;2023-05-21T03:04:13;100813.72;;;12.57;65.89
77079;BME280;66004;55.096;38.760;2023-05-21T03:06:41;100811.56;;;12.54;66.20
77079;BME280;66004;55.096;38.760;2023-05-21T03:09:07;100812.22;;;12.51;65.72
77079;BME280;66004;55.096;38.760;2023-05-21T03:11:32;100815.41;;;12.49;65.90
77079;BME280;66004;55.096;38.760;2023-05-21T03:13:58;100802.44;;;12.48;65.85
77079;BME280;66004;55.096;38.760;2023-05-21T03:16:23;100806.28;;;12.43;65.95
77079;BME280;66004;55.096;38.760;2023-05-21T03:18:49;100814.56;;;12.49;65.73
77079;BME280;66004;55.096;38.760;2023-05-21T03:21:14;100813.56;;;12.44;65.90
77079;BME280;66004;55.096;38.760;2023-05-21T03:23:40;100817.88;;;12.51;65.30
77079;BME280;66004;55.096;38.760;2023-05-21T03:26:07;100819.38;;;12.48;65.50
77079;BME280;66004;55.096;38.760;2023-05-21T03:28:34;100813.41;;;12.41;65.40
77079;BME280;66004;55.096;38.760;2023-05-21T03:30:59;100813.56;;;12.44;65.24
77079;BME280;66004;55.096;38.760;2023-05-21T03:33:25;100807.94;;;12.44;65.39
77079;BME280;66004;55.096;38.760;2023-05-21T03:35:51;100811.94;;;12.43;65.17
77079;BME280;66004;55.096;38.760;2023-05-21T03:38:16;100813.09;;;12.42;65.28
77079;BME280;66004;55.096;38.760;2023-05-21T03:40:42;100805.09;;;12.44;65.25
77079;BME280;66004;55.096;38.760;2023-05-21T03:43:08;100812.91;;;12.48;65.42
77079;BME280;66004;55.096;38.760;2023-05-21T03:45:33;100808.41;;;12.46;65.44
77079;BME280;66004;55.096;38.760;2023-05-21T03:47:59;100816.22;;;12.50;65.15
77079;BME280;66004;55.096;38.760;2023-05-21T03:50:26;100817.88;;;12.51;65.22
77079;BME280;66004;55.096;38.760;2023-05-21T03:52:51;100810.22;;;12.60;65.39
77079;BME280;66004;55.096;38.760;2023-05-21T03:55:17;100807.22;;;12.74;64.59
77079;BME280;66004;55.096;38.760;2023-05-21T03:57:42;100812.16;;;12.85;64.37
77079;BME280;66004;55.096;38.760;2023-05-21T04:00:08;100805.16;;;12.92;64.49
77079;BME280;66004;55.096;38.760;2023-05-21T04:02:34;100806.13;;;12.96;64.27
77079;BME280;66004;55.096;38.760;2023-05-21T04:04:59;100811.13;;;12.99;64.06
77079;BME280;66004;55.096;38.760;2023-05-21T04:07:25;100809.97;;;13.00;63.92
77079;BME280;66004;55.096;38.760;2023-05-21T04:09:51;100798.47;;;13.05;64.17
77079;BME280;66004;55.096;38.760;2023-05-21T04:12:17;100793.19;;;12.95;63.93
77079;BME280;66004;55.096;38.760;2023-05-21T04:14:44;100797.88;;;12.91;63.59
77079;BME280;66004;55.096;38.760;2023-05-21T04:17:11;100807.31;;;12.95;64.11
77079;BME280;66004;55.096;38.760;2023-05-21T04:19:37;100808.47;;;12.94;63.89
77079;BME280;66004;55.096;38.760;2023-05-21T04:22:03;100810.94;;;13.04;63.71
77079;BME280;66004;55.096;38.760;2023-05-21T04:24:29;100805.59;;;13.11;63.76
77079;BME280;66004;55.096;38.760;2023-05-21T04:26:54;100803.75;;;13.15;63.07
77079;BME280;66004;55.096;38.760;2023-05-21T04:29:21;100807.28;;;13.03;62.98
77079;BME280;66004;55.096;38.760;2023-05-21T04:31:47;100808.63;;;12.97;63.13
77079;BME280;66004;55.096;38.760;2023-05-21T04:34:13;100803.44;;;13.08;63.45
77079;BME280;66004;55.096;38.760;2023-05-21T04:36:42;100802.38;;;13.21;63.21
77079;BME280;66004;55.096;38.760;2023-05-21T04:39:12;100805.03;;;13.27;63.18
77079;BME280;66004;55.096;38.760;2023-05-21T04:41:39;100808.34;;;13.29;62.91
77079;BME280;66004;55.096;38.760;2023-05-21T04:44:07;100803.34;;;13.25;62.47
77079;BME280;66004;55.096;38.760;2023-05-21T04:46:33;100805.69;;;13.23;62.60
77079;BME280;66004;55.096;38.760;2023-05-21T04:49:00;100808.34;;;13.29;62.45
77079;BME280;66004;55.096;38.760;2023-05-21T04:51:27;100800.75;;;13.20;62.33
77079;BME280;66004;55.096;38.760;2023-05-21T04:53:53;100807.00;;;13.35;62.47
77079;BME280;66004;55.096;38.760;2023-05-21T04:56:19;100810.75;;;13.48;62.01
77079;BME280;66004;55.096;38.760;2023-05-21T04:58:45;100802.50;;;13.63;61.56
77079;BME280;66004;55.096;38.760;2023-05-21T05:01:13;100794.25;;;13.58;61.36
77079;BME280;66004;55.096;38.760;2023-05-21T05:03:39;100797.84;;;13.68;61.48
77079;BME280;66004;55.096;38.760;2023-05-21T05:06:04;100815.66;;;13.89;61.21
77079;BME280;66004;55.096;38.760;2023-05-21T05:08:31;100802.94;;;13.95;61.29
77079;BME280;66004;55.096;38.760;2023-05-21T05:10:58;100803.22;;;14.02;60.36
77079;BME280;66004;55.096;38.760;2023-05-21T05:13:23;100809.16;;;14.10;60.53
77079;BME280;66004;55.096;38.760;2023-05-21T05:15:49;100801.28;;;14.15;60.20
77079;BME280;66004;55.096;38.760;2023-05-21T05:18:14;100806.38;;;14.22;60.06
77079;BME280;66004;55.096;38.760;2023-05-21T05:20:40;100784.72;;;14.26;59.67
77079;BME280;66004;55.096;38.760;2023-05-21T05:23:06;100792.66;;;14.12;59.64
77079;BME280;66004;55.096;38.760;2023-05-21T05:25:31;100810.81;;;14.11;59.19
77079;BME280;66004;55.096;38.760;2023-05-21T05:27:57;100795.06;;;14.22;59.00
77079;BME280;66004;55.096;38.760;2023-05-21T05:30:22;100810.94;;;14.35;59.11
77079;BME280;66004;55.096;38.760;2023-05-21T05:32:48;100810.06;;;14.56;58.18
77079;BME280;66004;55.096;38.760;2023-05-21T05:35:13;100812.53;;;14.78;58.28
77079;BME280;66004;55.096;38.760;2023-05-21T05:37:39;100794.09;;;14.60;58.34
77079;BME280;66004;55.096;38.760;2023-05-21T05:40:05;100791.16;;;14.48;58.00
77079;BME280;66004;55.096;38.760;2023-05-21T05:42:31;100805.25;;;14.56;58.39
77079;BME280;66004;55.096;38.760;2023-05-21T05:44:56;100805.22;;;14.77;58.30
77079;BME280;66004;55.096;38.760;2023-05-21T05:47:22;100808.53;;;14.79;58.11
77079;BME280;66004;55.096;38.760;2023-05-21T05:49:48;100805.00;;;14.83;57.72
77079;BME280;66004;55.096;38.760;2023-05-21T05:52:14;100792.94;;;14.73;57.54
77079;BME280;66004;55.096;38.760;2023-05-21T05:54:40;100805.94;;;14.87;57.26
77079;BME280;66004;55.096;38.760;2023-05-21T05:57:06;100808.78;;;14.87;57.25
77079;BME280;66004;55.096;38.760;2023-05-21T05:59:32;100811.41;;;14.92;57.43
77079;BME280;66004;55.096;38.760;2023-05-21T06:02:00;100803.25;;;14.90;57.25
77079;BME280;66004;55.096;38.760;2023-05-21T06:04:28;100813.72;;;14.90;57.23
77079;BME280;66004;55.096;38.760;2023-05-21T06:06:55;100814.47;;;14.99;57.09
77079;BME280;66004;55.096;38.760;2023-05-21T06:09:26;100818.50;;;15.10;56.81
77079;BME280;66004;55.096;38.760;2023-05-21T06:11:53;100823.00;;;15.24;56.27
77079;BME280;66004;55.096;38.760;2023-05-21T06:14:20;100821.00;;;15.36;56.66
77079;BME280;66004;55.096;38.760;2023-05-21T06:16:51;100827.03;;;15.47;56.25
77079;BME280;66004;55.096;38.760;2023-05-21T06:19:18;100827.97;;;15.64;55.76
77079;BME280;66004;55.096;38.760;2023-05-21T06:21:46;100826.47;;;15.79;55.95
77079;BME280;66004;55.096;38.760;2023-05-21T06:24:13;100826.78;;;15.89;55.02
77079;BME280;66004;55.096;38.760;2023-05-21T06:26:43;100830.31;;;15.99;54.77
77079;BME280;66004;55.096;38.760;2023-05-21T06:29:08;100826.31;;;16.00;54.33
77079;BME280;66004;55.096;38.760;2023-05-21T06:31:34;100824.22;;;15.84;54.89
77079;BME280;66004;55.096;38.760;2023-05-21T06:34:01;100831.97;;;15.87;54.22
77079;BME280;66004;55.096;38.760;2023-05-21T06:36:26;100835.75;;;15.91;53.82
77079;BME280;66004;55.096;38.760;2023-05-21T06:38:55;100835.88;;;15.95;53.96
77079;BME280;66004;55.096;38.760;2023-05-21T06:41:21;100832.19;;;16.07;53.15
77079;BME280;66004;55.096;38.760;2023-05-21T06:43:47;100828.06;;;16.45;52.40
77079;BME280;66004;55.096;38.760;2023-05-21T06:46:18;100821.84;;;16.83;51.14
77079;BME280;66004;55.096;38.760;2023-05-21T06:48:44;100813.41;;;16.87;50.44
77079;BME280;66004;55.096;38.760;2023-05-21T06:51:11;100821.03;;;16.99;50.51
77079;BME280;66004;55.096;38.760;2023-05-21T06:53:38;100825.53;;;17.47;49.81
77079;BME280;66004;55.096;38.760;2023-05-21T06:56:05;100817.88;;;17.83;48.54
77079;BME280;66004;55.096;38.760;2023-05-21T06:58:35;100835.97;;;17.75;48.37
77079;BME280;66004;55.096;38.760;2023-05-21T07:01:04;100837.47;;;17.69;48.56
77079;BME280;66004;55.096;38.760;2023-05-21T07:03:31;100840.00;;;17.74;48.17
77079;BME280;66004;55.096;38.760;2023-05-21T07:05:56;100816.72;;;17.84;47.88
77079;BME280;66004;55.096;38.760;2023-05-21T07:08:23;100834.31;;;18.45;46.97
77079;BME280;66004;55.096;38.760;2023-05-21T07:10:49;100812.53;;;18.95;45.63
77079;BME280;66004;55.096;38.760;2023-05-21T07:13:17;100822.16;;;18.87;45.39
77079;BME280;66004;55.096;38.760;2023-05-21T07:15:44;100835.66;;;18.32;46.52
77079;BME280;66004;55.096;38.760;2023-05-21T07:18:15;100819.34;;;17.93;47.38
77079;BME280;66004;55.096;38.760;2023-05-21T07:20:41;100825.91;;;18.13;47.09
77079;BME280;66004;55.096;38.760;2023-05-21T07:23:07;100827.84;;;18.09;46.96
77079;BME280;66004;55.096;38.760;2023-05-21T07:25:33;100843.31;;;17.76;47.11
77079;BME280;66004;55.096;38.760;2023-05-21T07:28:01;100838.78;;;17.56;47.46
77079;BME280;66004;55.096;38.760;2023-05-21T07:30:29;100833.63;;;17.45;47.53
77079;BME280;66004;55.096;38.760;2023-05-21T07:33:06;100828.13;;;17.21;47.57
77079;BME280;66004;55.096;38.760;2023-05-21T07:35:35;100834.38;;;17.10;48.35
77079;BME280;66004;55.096;38.760;2023-05-21T07:38:01;100832.81;;;17.13;48.15
77079;BME280;66004;55.096;38.760;2023-05-21T07:40:30;100841.69;;;17.11;48.07
77079;BME280;66004;55.096;38.760;2023-05-21T07:42:56;100840.50;;;17.12;47.98
77079;BME280;66004;55.096;38.760;2023-05-21T07:45:22;100845.28;;;17.40;47.90
77079;BME280;66004;55.096;38.760;2023-05-21T07:47:50;100844.47;;;17.56;47.35
77079;BME280;66004;55.096;38.760;2023-05-21T07:50:17;100842.41;;;17.72;46.98
77079;BME280;66004;55.096;38.760;2023-05-21T07:52:53;100833.03;;;17.87;46.74
77079;BME280;66004;55.096;38.760;2023-05-21T07:55:24;100838.50;;;18.12;46.46
77079;BME280;66004;55.096;38.760;2023-05-21T07:57:56;100836.25;;;18.21;45.88
77079;BME280;66004;55.096;38.760;2023-05-21T08:00:40;100817.34;;;18.13;45.64
77079;BME280;66004;55.096;38.760;2023-05-21T08:03:07;100833.88;;;18.23;45.65
77079;BME280;66004;55.096;38.760;2023-05-21T08:05:38;100833.78;;;18.20;45.60
77079;BME280;66004;55.096;38.760;2023-05-21T08:08:23;100825.53;;;18.15;45.32
77079;BME280;66004;55.096;38.760;2023-05-21T08:10:49;100840.13;;;18.13;45.34
77079;BME280;66004;55.096;38.760;2023-05-21T08:13:44;100825.28;;;18.04;45.34
77079;BME280;66004;55.096;38.760;2023-05-21T08:16:17;100834.28;;;18.06;45.45
77079;BME280;66004;55.096;38.760;2023-05-21T08:18:51;100819.31;;;18.09;45.01
77079;BME280;66004;55.096;38.760;2023-05-21T08:21:35;100807.03;;;18.24;44.55
77079;BME280;66004;55.096;38.760;2023-05-21T08:24:07;100822.47;;;18.23;43.92
77079;BME280;66004;55.096;38.760;2023-05-21T08:26:39;100817.59;;;18.24;44.24
77079;BME280;66004;55.096;38.760;2023-05-21T08:29:14;100822.75;;;18.38;43.92
77079;BME280;66004;55.096;38.760;2023-05-21T08:31:41;100818.56;;;18.32;43.47
77079;BME280;66004;55.096;38.760;2023-05-21T08:34:26;100817.34;;;18.13;43.80
77079;BME280;66004;55.096;38.760;2023-05-21T08:36:53;100817.94;;;18.03;44.09
77079;BME280;66004;55.096;38.760;2023-05-21T08:39:21;100810.75;;;18.09;44.43
77079;BME280;66004;55.096;38.760;2023-05-21T08:41:54;100811.97;;;18.27;44.15
77079;BME280;66004;55.096;38.760;2023-05-21T08:44:27;100799.97;;;18.38;44.10
77079;BME280;66004;55.096;38.760;2023-05-21T08:46:59;100795.09;;;18.38;43.90
77079;BME280;66004;55.096;38.760;2023-05-21T08:52:05;100801.31;;;18.05;44.17
77079;BME280;66004;55.096;38.760;2023-05-21T08:54:30;100799.88;;;17.95;44.19
77079;BME280;66004;55.096;38.760;2023-05-21T08:56:59;100812.56;;;18.17;43.60
77079;BME280;66004;55.096;38.760;2023-05-21T08:59:31;100816.00;;;18.26;43.53
77079;BME280;66004;55.096;38.760;2023-05-21T09:01:59;100813.78;;;18.36;43.50
77079;BME280;66004;55.096;38.760;2023-05-21T09:04:29;100803.13;;;18.52;43.41
77079;BME280;66004;55.096;38.760;2023-05-21T09:07:01;100818.13;;;18.49;43.13
77079;BME280;66004;55.096;38.760;2023-05-21T09:09:33;100798.91;;;18.26;43.21
77079;BME280;66004;55.096;38.760;2023-05-21T09:12:02;100817.97;;;18.42;43.14
77079;BME280;66004;55.096;38.760;2023-05-21T09:14:34;100803.41;;;18.47;42.44
77079;BME280;66004;55.096;38.760;2023-05-21T09:17:01;100815.03;;;18.19;42.30
77079;BME280;66004;55.096;38.760;2023-05-21T09:19:27;100817.78;;;17.96;43.05
77079;BME280;66004;55.096;38.760;2023-05-21T09:22:03;100812.00;;;17.92;43.07
77079;BME280;66004;55.096;38.760;2023-05-21T09:24:50;100821.09;;;17.98;43.17
77079;BME280;66004;55.096;38.760;2023-05-21T09:27:18;100820.91;;;17.90;43.28
77079;BME280;66004;55.096;38.760;2023-05-21T09:29:49;100814.66;;;18.01;43.26
77079;BME280;66004;55.096;38.760;2023-05-21T09:32:16;100820.81;;;18.22;42.61
77079;BME280;66004;55.096;38.760;2023-05-21T09:34:42;100802.22;;;18.28;42.38
77079;BME280;66004;55.096;38.760;2023-05-21T09:37:08;100801.31;;;18.44;42.54
77079;BME280;66004;55.096;38.760;2023-05-21T09:39:34;100804.47;;;18.58;42.11
77079;BME280;66004;55.096;38.760;2023-05-21T09:42:00;100807.69;;;18.57;41.68
77079;BME280;66004;55.096;38.760;2023-05-21T09:44:26;100803.22;;;18.79;41.45
77079;BME280;66004;55.096;38.760;2023-05-21T09:46:58;100797.84;;;18.93;41.01
77079;BME280;66004;55.096;38.760;2023-05-21T09:49:24;100812.69;;;19.02;40.70
77079;BME280;66004;55.096;38.760;2023-05-21T09:51:58;100809.50;;;19.08;40.22
77079;BME280;66004;55.096;38.760;2023-05-21T09:54:24;100800.88;;;19.27;39.86
77079;BME280;66004;55.096;38.760;2023-05-21T09:56:51;100806.06;;;19.44;39.32
77079;BME280;66004;55.096;38.760;2023-05-21T09:59:17;100786.28;;;19.32;39.58
77079;BME280;66004;55.096;38.760;2023-05-21T10:01:43;100799.03;;;19.38;39.40
77079;BME280;66004;55.096;38.760;2023-05-21T10:04:10;100799.56;;;19.48;39.20
77079;BME280;66004;55.096;38.760;2023-05-21T10:06:42;100806.19;;;19.52;39.29
77079;BME280;66004;55.096;38.760;2023-05-21T10:09:13;100806.69;;;19.34;38.74
77079;BME280;66004;55.096;38.760;2023-05-21T10:11:43;100812.03;;;19.13;39.64
77079;BME280;66004;55.096;38.760;2023-05-21T10:14:20;100810.38;;;19.12;39.14
77079;BME280;66004;55.096;38.760;2023-05-21T10:16:47;100814.72;;;19.25;38.70
77079;BME280;66004;55.096;38.760;2023-05-21T10:19:14;100815.81;;;19.43;38.90
77079;BME280;66004;55.096;38.760;2023-05-21T10:21:46;100809.84;;;19.75;38.11
77079;BME280;66004;55.096;38.760;2023-05-21T10:24:14;100817.19;;;19.76;37.52
77079;BME280;66004;55.096;38.760;2023-05-21T10:26:40;100808.81;;;19.64;37.57
77079;BME280;66004;55.096;38.760;2023-05-21T10:29:06;100809.41;;;19.50;37.78
77079;BME280;66004;55.096;38.760;2023-05-21T10:31:32;100814.31;;;19.50;37.88
77079;BME280;66004;55.096;38.760;2023-05-21T10:33:59;100797.00;;;19.39;37.85
77079;BME280;66004;55.096;38.760;2023-05-21T10:39:25;100815.31;;;19.61;37.93
77079;BME280;66004;55.096;38.760;2023-05-21T10:53:32;100793.22;;;19.58;36.45
77079;BME280;66004;55.096;38.760;2023-05-21T10:56:27;100806.28;;;19.59;36.80
77079;BME280;66004;55.096;38.760;2023-05-21T11:01:30;100813.25;;;19.84;37.42
77079;BME280;66004;55.096;38.760;2023-05-21T11:03:58;100822.72;;;19.92;37.03
77079;BME280;66004;55.096;38.760;2023-05-21T11:06:25;100808.50;;;19.96;36.66
77079;BME280;66004;55.096;38.760;2023-05-21T11:08:51;100810.00;;;20.16;36.25
77079;BME280;66004;55.096;38.760;2023-05-21T11:11:59;100801.22;;;20.29;36.47
77079;BME280;66004;55.096;38.760;2023-05-21T11:14:55;100817.22;;;20.37;36.31
77079;BME280;66004;55.096;38.760;2023-05-21T11:17:40;100807.53;;;20.45;36.08
77079;BME280;66004;55.096;38.760;2023-05-21T11:20:11;100819.13;;;20.59;36.61
77079;BME280;66004;55.096;38.760;2023-05-21T11:22:44;100804.38;;;20.54;36.10
77079;BME280;66004;55.096;38.760;2023-05-21T11:25:10;100823.28;;;20.62;36.34
77079;BME280;66004;55.096;38.760;2023-05-21T11:27:38;100821.31;;;20.70;36.45
77079;BME280;66004;55.096;38.760;2023-05-21T11:30:05;100815.94;;;20.61;35.71
77079;BME280;66004;55.096;38.760;2023-05-21T11:32:35;100824.84;;;20.59;36.15
77079;BME280;66004;55.096;38.760;2023-05-21T11:35:01;100818.28;;;20.55;35.86
77079;BME280;66004;55.096;38.760;2023-05-21T11:37:28;100817.41;;;20.51;36.03
77079;BME280;66004;55.096;38.760;2023-05-21T11:40:15;100830.69;;;20.67;35.78
77079;BME280;66004;55.096;38.760;2023-05-21T11:42:40;100824.19;;;20.70;35.54
77079;BME280;66004;55.096;38.760;2023-05-21T11:45:08;100831.34;;;20.56;35.19
77079;BME280;66004;55.096;38.760;2023-05-21T11:47:34;100810.66;;;20.33;35.41
77079;BME280;66004;55.096;38.760;2023-05-21T11:50:01;100826.09;;;20.28;35.93
77079;BME280;66004;55.096;38.760;2023-05-21T11:52:32;100836.84;;;20.08;35.15
77079;BME280;66004;55.096;38.760;2023-05-21T11:55:07;100820.69;;;19.93;35.36
77079;BME280;66004;55.096;38.760;2023-05-21T11:57:35;100826.63;;;20.07;34.94
77079;BME280;66004;55.096;38.760;2023-05-21T12:00:02;100836.53;;;20.17;35.09
77079;BME280;66004;55.096;38.760;2023-05-21T12:03:02;100835.72;;;20.16;35.11
77079;BME280;66004;55.096;38.760;2023-05-21T12:05:42;100821.66;;;20.04;35.00
77079;BME280;66004;55.096;38.760;2023-05-21T12:08:10;100830.72;;;20.10;35.03
77079;BME280;66004;55.096;38.760;2023-05-21T12:10:55;100824.53;;;20.04;35.11
77079;BME280;66004;55.096;38.760;2023-05-21T12:13:28;100823.00;;;20.10;35.54
77079;BME280;66004;55.096;38.760;2023-05-21T12:15:57;100836.59;;;20.20;35.61
77079;BME280;66004;55.096;38.760;2023-05-21T12:18:27;100805.56;;;20.19;35.52
77079;BME280;66004;55.096;38.760;2023-05-21T12:21:00;100825.03;;;20.40;35.61
77079;BME280;66004;55.096;38.760;2023-05-21T12:23:30;100831.19;;;20.42;35.30
77079;BME280;66004;55.096;38.760;2023-05-21T12:25:57;100811.41;;;20.30;35.25
77079;BME280;66004;55.096;38.760;2023-05-21T12:28:23;100836.09;;;20.45;35.50
77079;BME280;66004;55.096;38.760;2023-05-21T12:30:52;100828.00;;;20.51;35.23
77079;BME280;66004;55.096;38.760;2023-05-21T12:33:23;100815.66;;;20.43;35.30
77079;BME280;66004;55.096;38.760;2023-05-21T12:35:50;100820.84;;;20.34;35.08
77079;BME280;66004;55.096;38.760;2023-05-21T12:38:17;100828.28;;;20.38;35.14
77079;BME280;66004;55.096;38.760;2023-05-21T12:40:43;100817.31;;;20.44;34.91
77079;BME280;66004;55.096;38.760;2023-05-21T12:43:17;100818.63;;;20.50;34.91
77079;BME280;66004;55.096;38.760;2023-05-21T12:45:43;100820.34;;;20.58;34.74
77079;BME280;66004;55.096;38.760;2023-05-21T12:48:11;100821.03;;;20.48;34.37
77079;BME280;66004;55.096;38.760;2023-05-21T12:50:58;100814.47;;;20.44;34.66
77079;BME280;66004;55.096;38.760;2023-05-21T12:53:45;100814.03;;;20.42;34.61
77079;BME280;66004;55.096;38.760;2023-05-21T12:56:11;100820.09;;;20.37;35.13
77079;BME280;66004;55.096;38.760;2023-05-21T12:58:37;100801.53;;;20.23;35.07
77079;BME280;66004;55.096;38.760;2023-05-21T13:01:11;100822.03;;;20.29;35.51
77079;BME280;66004;55.096;38.760;2023-05-21T13:03:55;100823.53;;;20.19;35.54
77079;BME280;66004;55.096;38.760;2023-05-21T13:06:22;100820.31;;;20.25;35.54
77079;BME280;66004;55.096;38.760;2023-05-21T13:08:53;100823.72;;;20.34;35.66
77079;BME280;66004;55.096;38.760;2023-05-21T13:11:32;100817.28;;;20.40;35.37
77079;BME280;66004;55.096;38.760;2023-05-21T13:14:00;100821.44;;;20.47;35.44